createdAt,value
2022-11-20T00:01:32.725Z,-4.90
2022-11-20T00:03:56.050Z,-4.99
2022-11-20T00:06:19.427Z,-5.04
2022-11-20T00:08:42.458Z,-5.05
2022-11-20T00:11:15.813Z,-4.96
2022-11-20T00:13:38.082Z,-5.11
2022-11-20T00:16:01.035Z,-5.17
2022-11-20T00:18:22.472Z,-5.07
2022-11-20T00:20:43.986Z,-5.20
2022-11-20T00:23:06.896Z,-5.11
2022-11-20T00:25:28.398Z,-5.03
2022-11-20T00:27:49.850Z,-5.03
2022-11-20T00:30:14.880Z,-5.22
2022-11-20T00:32:36.761Z,-5.01
2022-11-20T00:34:58.207Z,-4.94
2022-11-20T00:37:19.661Z,-5.03
2022-11-20T00:39:41.145Z,-4.97
2022-11-20T00:42:02.867Z,-5.31
2022-11-20T00:44:24.356Z,-5.42
2022-11-20T00:46:45.818Z,-5.30
2022-11-20T00:49:07.262Z,-5.15
2022-11-20T00:51:29.076Z,-5.44
2022-11-20T00:53:50.683Z,-5.66
2022-11-20T00:56:16.045Z,-5.53
2022-11-20T00:58:39.439Z,-5.46
2022-11-20T01:01:16.659Z,-5.68
2022-11-20T01:03:40.806Z,-5.77
2022-11-20T01:06:11.594Z,-5.51
2022-11-20T01:08:34.928Z,-5.54
2022-11-20T01:11:00.573Z,-5.62
2022-11-20T01:13:40.260Z,-5.46
2022-11-20T01:16:07.167Z,-5.11
2022-11-20T01:18:28.598Z,-4.97
2022-11-20T01:20:50.046Z,-5.06
2022-11-20T01:23:11.507Z,-5.06
2022-11-20T01:25:33.005Z,-4.99
2022-11-20T01:27:54.488Z,-4.90
2022-11-20T01:30:16.083Z,-4.76
2022-11-20T01:32:37.550Z,-4.62
2022-11-20T01:34:59.019Z,-4.78
2022-11-20T01:37:20.496Z,-4.80
2022-11-20T01:39:42.016Z,-4.56
2022-11-20T01:42:22.052Z,-4.41
2022-11-20T01:44:57.925Z,-4.31
2022-11-20T01:47:25.193Z,-4.44
2022-11-20T01:49:56.734Z,-4.86
2022-11-20T01:52:31.524Z,-4.80
2022-11-20T01:54:59.950Z,-4.47
2022-11-20T01:57:23.466Z,-4.42
2022-11-20T01:59:54.956Z,-4.59
2022-11-20T02:02:16.469Z,-4.62
2022-11-20T02:04:38.015Z,-4.45
2022-11-20T02:07:05.919Z,-4.39
2022-11-20T02:09:28.968Z,-4.50
2022-11-20T02:11:50.508Z,-4.59
2022-11-20T02:14:12.136Z,-4.57
2022-11-20T02:16:37.753Z,-4.65
2022-11-20T02:19:02.359Z,-4.81
2022-11-20T02:21:55.963Z,-4.68
2022-11-20T02:24:22.565Z,-4.44
2022-11-20T02:26:54.781Z,-4.21
2022-11-20T02:29:20.659Z,-3.97
2022-11-20T02:31:44.417Z,-3.96
2022-11-20T02:34:06.254Z,-3.95
2022-11-20T02:36:29.241Z,-3.88
2022-11-20T02:38:51.024Z,-3.88
2022-11-20T02:41:12.492Z,-3.90
2022-11-20T02:43:34.062Z,-4.10
2022-11-20T02:45:55.494Z,-4.03
2022-11-20T02:48:16.987Z,-3.91
2022-11-20T02:50:39.894Z,-3.92
2022-11-20T02:53:01.321Z,-3.78
2022-11-20T02:55:23.159Z,-3.74
2022-11-20T02:57:44.641Z,-3.69
2022-11-20T03:00:07.772Z,-3.59
2022-11-20T03:02:32.760Z,-3.44
2022-11-20T03:04:54.256Z,-3.42
2022-11-20T03:07:15.707Z,-3.26
2022-11-20T03:09:37.274Z,-3.32
2022-11-20T03:11:59.079Z,-3.22
2022-11-20T03:14:21.238Z,-3.17
2022-11-20T03:16:42.758Z,-3.20
2022-11-20T03:19:04.537Z,-3.21
2022-11-20T03:21:26.085Z,-3.41
2022-11-20T03:23:48.058Z,-3.65
2022-11-20T03:26:12.481Z,-3.53
2022-11-20T03:28:34.203Z,-3.35
2022-11-20T03:30:55.659Z,-3.22
2022-11-20T03:33:17.076Z,-3.11
2022-11-20T03:35:38.553Z,-3.06
2022-11-20T03:37:59.993Z,-3.14
2022-11-20T03:40:21.462Z,-3.10
2022-11-20T03:42:48.826Z,-3.29
2022-11-20T03:45:10.527Z,-3.20
2022-11-20T03:47:31.980Z,-3.21
2022-11-20T03:49:53.480Z,-3.21
2022-11-20T03:52:15.009Z,-3.27
2022-11-20T03:54:36.493Z,-3.06
2022-11-20T03:56:57.975Z,-3.06
2022-11-20T03:59:19.646Z,-3.17
2022-11-20T04:01:44.300Z,-2.95
2022-11-20T04:04:09.705Z,-2.66
2022-11-20T04:06:35.949Z,-2.51
2022-11-20T04:08:59.144Z,-2.37
2022-11-20T04:11:22.961Z,-2.27
2022-11-20T04:13:49.243Z,-2.15
2022-11-20T04:16:11.170Z,-2.17
2022-11-20T04:18:32.911Z,-2.07
2022-11-20T04:20:54.414Z,-2.00
2022-11-20T04:23:15.906Z,-2.23
2022-11-20T04:25:37.351Z,-2.44
2022-11-20T04:27:58.818Z,-2.45
2022-11-20T04:30:20.280Z,-2.51
2022-11-20T04:32:41.783Z,-2.49
2022-11-20T04:35:03.247Z,-2.62
2022-11-20T04:37:24.758Z,-2.55
2022-11-20T04:39:46.268Z,-2.35
2022-11-20T04:42:28.063Z,-2.22
2022-11-20T04:44:49.504Z,-2.43
2022-11-20T04:47:10.998Z,-2.48
2022-11-20T04:49:32.829Z,-2.37
2022-11-20T04:51:54.822Z,-2.16
2022-11-20T04:54:17.233Z,-2.16
2022-11-20T04:56:38.682Z,-2.17
2022-11-20T04:59:03.307Z,-2.24
2022-11-20T05:01:25.825Z,-2.29
2022-11-20T05:03:47.972Z,-2.15
2022-11-20T05:06:11.076Z,-2.40
2022-11-20T05:08:33.094Z,-2.21
2022-11-20T05:10:54.618Z,-1.97
2022-11-20T05:13:16.073Z,-1.80
2022-11-20T05:15:37.668Z,-1.71
2022-11-20T05:17:59.170Z,-1.79
2022-11-20T05:20:21.546Z,-1.86
2022-11-20T05:22:43.763Z,-1.95
2022-11-20T05:25:05.618Z,-2.12
2022-11-20T05:27:27.098Z,-2.17
2022-11-20T05:29:48.607Z,-2.03
2022-11-20T05:32:10.748Z,-1.83
2022-11-20T05:34:32.773Z,-1.57
2022-11-20T05:36:54.241Z,-1.46
2022-11-20T05:39:15.718Z,-1.28
2022-11-20T05:41:37.217Z,-1.20
2022-11-20T05:43:59.279Z,-1.23
2022-11-20T05:46:27.736Z,-1.40
2022-11-20T05:48:50.037Z,-1.71
2022-11-20T05:51:14.366Z,-1.82
2022-11-20T05:53:37.449Z,-1.68
2022-11-20T05:56:07.654Z,-1.74
2022-11-20T05:58:29.967Z,-1.67
2022-11-20T06:00:51.679Z,-1.45
2022-11-20T06:03:13.136Z,-1.30
2022-11-20T06:05:34.698Z,-1.21
2022-11-20T06:07:56.128Z,-1.44
2022-11-20T06:10:17.586Z,-1.52
2022-11-20T06:12:39.231Z,-1.47
2022-11-20T06:15:01.041Z,-1.57
2022-11-20T06:17:22.539Z,-1.51
2022-11-20T06:19:44.014Z,-1.35
2022-11-20T06:22:05.444Z,-1.25
2022-11-20T06:24:26.897Z,-1.40
2022-11-20T06:26:48.367Z,-1.63
2022-11-20T06:29:09.870Z,-1.45
2022-11-20T06:31:33.791Z,-1.43
2022-11-20T06:33:56.290Z,-1.31
2022-11-20T06:36:19.504Z,-1.05
2022-11-20T06:38:41.264Z,-0.83
2022-11-20T06:41:04.553Z,-0.74
2022-11-20T06:43:26.711Z,-0.97
2022-11-20T06:45:53.923Z,-0.92
2022-11-20T06:48:15.354Z,-1.01
2022-11-20T06:50:39.716Z,-0.87
2022-11-20T06:53:03.515Z,-0.87
2022-11-20T06:55:25.023Z,-0.80
2022-11-20T06:57:47.395Z,-0.70
2022-11-20T07:00:11.034Z,-0.75
2022-11-20T07:02:32.581Z,-0.74
2022-11-20T07:04:54.196Z,-0.63
2022-11-20T07:07:15.716Z,-0.71
2022-11-20T07:09:37.248Z,-0.75
2022-11-20T07:11:58.713Z,-0.65
2022-11-20T07:14:20.202Z,-0.56
2022-11-20T07:16:41.702Z,-0.51
2022-11-20T07:19:03.168Z,-0.54
2022-11-20T07:21:24.702Z,-0.44
2022-11-20T07:23:47.410Z,-0.31
2022-11-20T07:26:11.083Z,-0.22
2022-11-20T07:28:32.582Z,-0.14
2022-11-20T07:30:54.632Z,-0.17
2022-11-20T07:33:16.054Z,-0.21
2022-11-20T07:35:37.498Z,-0.23
2022-11-20T07:37:58.963Z,-0.26
2022-11-20T07:40:20.932Z,-0.22
2022-11-20T07:42:53.569Z,-0.33
2022-11-20T07:45:15.108Z,-0.39
2022-11-20T07:47:37.567Z,-0.51
2022-11-20T07:49:59.019Z,-0.38
2022-11-20T07:52:20.436Z,-0.26
2022-11-20T07:54:41.919Z,-0.19
2022-11-20T07:57:03.466Z,-0.15
2022-11-20T07:59:24.967Z,-0.02
2022-11-20T08:01:46.460Z,0.06
2022-11-20T08:04:08.118Z,0.06
2022-11-20T08:06:29.819Z,-0.11
2022-11-20T08:08:51.925Z,-0.20
2022-11-20T08:11:31.792Z,-0.33
2022-11-20T08:14:11.494Z,-0.29
2022-11-20T08:16:32.943Z,-0.27
2022-11-20T08:18:54.536Z,-0.20
2022-11-20T08:21:16.101Z,-0.17
2022-11-20T08:23:37.528Z,-0.18
2022-11-20T08:25:59.018Z,0.04
2022-11-20T08:28:22.026Z,0.18
2022-11-20T08:30:43.848Z,0.26
2022-11-20T08:33:09.312Z,0.15
2022-11-20T08:35:34.135Z,-0.01
2022-11-20T08:37:55.597Z,-0.12
2022-11-20T08:40:19.578Z,-0.10
2022-11-20T08:42:51.796Z,-0.06
2022-11-20T08:45:13.297Z,0.12
2022-11-20T08:47:34.734Z,0.26
2022-11-20T08:49:56.177Z,0.24
2022-11-20T08:52:17.611Z,0.20
2022-11-20T08:54:39.089Z,0.32
2022-11-20T08:57:00.522Z,0.18
2022-11-20T09:00:04.510Z,0.25
2022-11-20T09:02:03.489Z,0.35
2022-11-20T09:04:25.030Z,0.37
2022-11-20T09:06:46.520Z,0.35
2022-11-20T09:09:08.078Z,0.36
2022-11-20T09:11:29.525Z,0.45
2022-11-20T09:13:50.977Z,0.38
2022-11-20T09:16:12.535Z,0.29
2022-11-20T09:18:37.011Z,0.21
2022-11-20T09:21:00.154Z,0.27
2022-11-20T09:23:21.647Z,0.42
2022-11-20T09:25:43.993Z,0.19
2022-11-20T09:28:06.068Z,0.12
2022-11-20T09:30:28.352Z,0.21
2022-11-20T09:32:49.866Z,0.03
2022-11-20T09:35:12.043Z,0.14
2022-11-20T09:37:33.632Z,0.12
2022-11-20T09:39:55.077Z,0.28
2022-11-20T09:42:22.612Z,0.53
2022-11-20T09:45:17.202Z,0.59
2022-11-20T09:48:10.152Z,0.81
2022-11-20T09:50:43.687Z,0.75
2022-11-20T09:53:14.304Z,1.02
2022-11-20T09:55:37.129Z,1.11
2022-11-20T09:58:00.483Z,1.26
2022-11-20T10:00:23.020Z,1.18
2022-11-20T10:03:02.656Z,1.14
2022-11-20T10:05:29.288Z,1.11
2022-11-20T10:08:03.256Z,1.00
2022-11-20T10:10:50.818Z,1.16
2022-11-20T10:13:55.161Z,0.97
2022-11-20T10:16:44.984Z,1.03
2022-11-20T10:19:47.606Z,1.19
2022-11-20T10:22:17.743Z,1.31
2022-11-20T10:24:57.813Z,1.31
2022-11-20T10:27:40.706Z,1.52
2022-11-20T10:30:09.928Z,1.42
2022-11-20T10:32:37.310Z,1.51
2022-11-20T10:35:33.453Z,1.78
2022-11-20T10:38:01.583Z,1.94
2022-11-20T10:40:44.151Z,1.61
2022-11-20T10:43:20.725Z,1.70
2022-11-20T10:46:09.809Z,1.88
2022-11-20T10:48:32.812Z,1.61
2022-11-20T10:50:54.206Z,1.52
2022-11-20T10:53:41.654Z,1.82
2022-11-20T10:56:16.184Z,1.74
2022-11-20T10:58:51.935Z,1.77
2022-11-20T11:01:19.247Z,2.08
2022-11-20T11:03:43.916Z,2.32
2022-11-20T11:06:16.981Z,2.35
2022-11-20T11:08:42.363Z,2.48
2022-11-20T11:11:23.530Z,2.59
2022-11-20T11:13:44.972Z,2.56
2022-11-20T11:16:06.490Z,2.60
2022-11-20T11:18:32.647Z,2.65
2022-11-20T11:20:56.287Z,2.75
2022-11-20T11:23:37.170Z,2.67
2022-11-20T11:26:00.885Z,2.58
2022-11-20T11:28:27.056Z,2.65
2022-11-20T11:30:51.381Z,2.63
2022-11-20T11:33:21.796Z,2.59
2022-11-20T11:35:53.408Z,2.74
2022-11-20T11:38:30.804Z,2.71
2022-11-20T11:40:54.983Z,2.73
2022-11-20T11:43:44.351Z,2.66
2022-11-20T11:46:33.191Z,2.57
2022-11-20T11:48:58.594Z,2.49
2022-11-20T11:51:21.836Z,2.43
2022-11-20T11:53:43.846Z,2.08
2022-11-20T11:56:10.715Z,2.08
2022-11-20T11:58:41.301Z,1.84
2022-11-20T12:01:18.723Z,1.77
2022-11-20T12:03:43.165Z,1.54
2022-11-20T12:06:13.683Z,1.58
2022-11-20T12:08:49.410Z,1.61
2022-11-20T12:11:35.926Z,1.55
2022-11-20T12:14:16.828Z,1.60
2022-11-20T12:16:40.179Z,1.69
2022-11-20T12:19:01.932Z,1.79
2022-11-20T12:21:35.688Z,1.69
2022-11-20T12:24:14.546Z,1.62
2022-11-20T12:27:06.149Z,1.73
2022-11-20T12:30:00.698Z,1.79
2022-11-20T12:32:50.406Z,1.68
2022-11-20T12:35:44.803Z,1.66
2022-11-20T12:38:36.621Z,1.61
2022-11-20T12:41:36.530Z,1.56
2022-11-20T12:44:47.721Z,1.66
2022-11-20T12:47:21.223Z,1.67
2022-11-20T12:49:57.593Z,1.82
2022-11-20T12:52:30.299Z,1.87
2022-11-20T12:55:01.009Z,1.85
2022-11-20T12:58:03.091Z,1.88
2022-11-20T13:00:25.861Z,1.93
2022-11-20T13:03:06.138Z,2.13
2022-11-20T13:05:49.327Z,2.11
2022-11-20T13:08:21.725Z,2.14
2022-11-20T13:10:53.009Z,2.24
2022-11-20T13:13:26.854Z,2.37
2022-11-20T13:16:14.366Z,2.43
2022-11-20T13:18:40.654Z,2.67
2022-11-20T13:21:02.235Z,2.66
2022-11-20T13:23:26.217Z,2.85
2022-11-20T13:25:48.886Z,2.77
2022-11-20T13:28:10.239Z,2.72
2022-11-20T13:30:32.738Z,2.82
2022-11-20T13:33:24.084Z,2.90
2022-11-20T13:35:57.301Z,3.07
2022-11-20T13:38:18.729Z,3.22
2022-11-20T13:41:24.255Z,3.15
2022-11-20T13:43:45.694Z,3.26
2022-11-20T13:46:09.591Z,3.15
2022-11-20T13:48:39.927Z,3.22
2022-11-20T13:51:35.882Z,3.30
2022-11-20T13:54:34.959Z,3.39
2022-11-20T13:57:21.571Z,3.38
2022-11-20T13:59:57.960Z,3.49
2022-11-20T14:02:22.251Z,3.57
2022-11-20T14:04:47.606Z,3.63
2022-11-20T14:07:10.103Z,3.69
2022-11-20T14:09:34.966Z,3.80
2022-11-20T14:11:57.685Z,3.77
2022-11-20T14:14:22.667Z,3.82
2022-11-20T14:16:45.381Z,3.74
2022-11-20T14:19:22.197Z,3.76
2022-11-20T14:21:43.753Z,3.84
2022-11-20T14:24:06.247Z,3.93
2022-11-20T14:26:27.713Z,3.91
2022-11-20T14:28:52.052Z,3.94
2022-11-20T14:31:23.706Z,3.85
2022-11-20T14:33:45.186Z,3.82
2022-11-20T14:36:06.948Z,3.81
2022-11-20T14:38:32.255Z,3.87
2022-11-20T14:40:54.053Z,3.91
2022-11-20T14:43:27.208Z,3.95
2022-11-20T14:45:58.934Z,3.91
2022-11-20T14:48:24.909Z,3.91
2022-11-20T14:50:46.367Z,3.98
2022-11-20T14:53:07.902Z,3.95
2022-11-20T14:55:35.871Z,3.95
2022-11-20T14:58:00.506Z,3.95
2022-11-20T15:00:22.851Z,3.96
2022-11-20T15:02:46.929Z,4.03
2022-11-20T15:05:08.738Z,4.03
2022-11-20T15:07:33.410Z,3.97
2022-11-20T15:10:05.693Z,3.97
2022-11-20T15:12:27.464Z,3.95
2022-11-20T15:14:49.444Z,3.93
2022-11-20T15:17:12.703Z,3.91
2022-11-20T15:19:37.345Z,3.91
2022-11-20T15:21:58.783Z,3.91
2022-11-20T15:24:21.148Z,3.93
2022-11-20T15:26:43.869Z,3.94
2022-11-20T15:29:05.313Z,3.96
2022-11-20T15:31:26.834Z,3.97
2022-11-20T15:33:48.351Z,3.98
2022-11-20T15:36:10.255Z,3.91
2022-11-20T15:38:31.854Z,3.94
2022-11-20T15:40:53.357Z,3.89
2022-11-20T15:43:15.443Z,3.91
2022-11-20T15:45:54.082Z,3.89
2022-11-20T15:48:19.992Z,3.90
2022-11-20T15:50:49.026Z,3.94
2022-11-20T15:53:11.163Z,3.90
2022-11-20T15:55:33.186Z,3.90
2022-11-20T15:57:54.611Z,3.92
2022-11-20T16:00:22.168Z,3.96
2022-11-20T16:02:44.907Z,3.94
2022-11-20T16:05:12.175Z,3.97
2022-11-20T16:07:33.605Z,3.99
2022-11-20T16:09:57.580Z,3.94
2022-11-20T16:12:39.047Z,3.88
2022-11-20T16:15:18.850Z,3.89
2022-11-20T16:17:45.939Z,3.79
2022-11-20T16:20:12.110Z,3.67
2022-11-20T16:22:33.546Z,3.73
2022-11-20T16:24:55.037Z,3.60
2022-11-20T16:27:16.516Z,3.74
2022-11-20T16:29:37.925Z,3.60
2022-11-20T16:31:59.435Z,3.58
2022-11-20T16:34:20.957Z,3.66
2022-11-20T16:36:44.487Z,3.66
2022-11-20T16:39:06.262Z,3.73
2022-11-20T16:41:30.417Z,3.88
2022-11-20T16:43:55.139Z,3.81
2022-11-20T16:46:18.458Z,3.73
2022-11-20T16:48:39.956Z,3.54
2022-11-20T16:51:01.428Z,3.64
2022-11-20T16:53:23.218Z,3.56
2022-11-20T16:55:44.997Z,3.78
2022-11-20T16:58:06.421Z,3.78
2022-11-20T17:00:27.863Z,3.72
2022-11-20T17:02:49.302Z,3.54
2022-11-20T17:05:10.743Z,3.58
2022-11-20T17:07:32.283Z,3.41
2022-11-20T17:09:53.769Z,3.37
2022-11-20T17:12:15.184Z,3.38
2022-11-20T17:14:36.875Z,3.36
2022-11-20T17:16:58.599Z,3.27
2022-11-20T17:19:20.178Z,3.29
2022-11-20T17:21:41.939Z,3.13
2022-11-20T17:24:09.197Z,3.20
2022-11-20T17:26:31.287Z,3.27
2022-11-20T17:28:55.662Z,3.31
2022-11-20T17:31:17.478Z,3.31
2022-11-20T17:33:40.753Z,3.24
2022-11-20T17:36:02.495Z,3.36
2022-11-20T17:38:24.239Z,3.31
2022-11-20T17:40:46.265Z,3.42
2022-11-20T17:43:07.658Z,3.50
2022-11-20T17:45:29.165Z,3.63
2022-11-20T17:47:51.120Z,3.55
2022-11-20T17:50:12.750Z,3.51
2022-11-20T17:52:34.195Z,3.45
2022-11-20T17:54:57.657Z,3.58
2022-11-20T17:57:37.481Z,3.55
2022-11-20T17:59:58.938Z,3.51
2022-11-20T18:02:20.422Z,3.31
2022-11-20T18:04:41.862Z,3.31
2022-11-20T18:07:03.485Z,3.38
2022-11-20T18:09:24.964Z,3.36
2022-11-20T18:11:46.409Z,3.47
2022-11-20T18:14:34.688Z,3.44
2022-11-20T18:17:07.704Z,3.28
2022-11-20T18:19:33.090Z,3.28
2022-11-20T18:21:55.220Z,3.41
2022-11-20T18:24:16.786Z,3.30
2022-11-20T18:26:43.920Z,3.28
2022-11-20T18:29:07.437Z,3.40
2022-11-20T18:31:29.492Z,3.43
2022-11-20T18:33:52.497Z,3.47
2022-11-20T18:36:16.454Z,3.55
2022-11-20T18:38:40.758Z,3.69
2022-11-20T18:41:03.854Z,3.69
2022-11-20T18:43:45.016Z,3.80
2022-11-20T18:46:06.471Z,3.76
2022-11-20T18:48:27.883Z,3.72
2022-11-20T18:50:49.311Z,3.71
2022-11-20T18:53:10.755Z,3.78
2022-11-20T18:55:32.266Z,3.74
2022-11-20T18:57:55.102Z,3.82
2022-11-20T19:00:17.854Z,3.77
2022-11-20T19:02:42.830Z,3.75
2022-11-20T19:05:05.475Z,3.77
2022-11-20T19:07:27.134Z,3.62
2022-11-20T19:09:50.584Z,3.69
2022-11-20T19:12:12.752Z,3.80
2022-11-20T19:14:34.540Z,3.88
2022-11-20T19:16:56.038Z,3.89
2022-11-20T19:19:17.881Z,3.83
2022-11-20T19:21:39.447Z,3.93
2022-11-20T19:24:02.637Z,3.72
2022-11-20T19:26:25.312Z,3.80
2022-11-20T19:28:48.593Z,3.92
2022-11-20T19:31:12.925Z,3.95
2022-11-20T19:33:35.002Z,3.85
2022-11-20T19:35:56.503Z,3.84
2022-11-20T19:38:17.930Z,3.90
2022-11-20T19:40:39.367Z,3.87
2022-11-20T19:43:00.805Z,3.91
2022-11-20T19:45:22.236Z,4.04
2022-11-20T19:48:06.615Z,4.07
2022-11-20T19:50:25.563Z,4.10
2022-11-20T19:52:47.057Z,4.01
2022-11-20T19:55:10.011Z,4.13
2022-11-20T19:57:32.063Z,4.08
2022-11-20T19:59:53.565Z,4.19
2022-11-20T20:02:15.013Z,4.16
2022-11-20T20:04:36.471Z,4.16
2022-11-20T20:06:57.910Z,4.18
2022-11-20T20:09:19.394Z,4.12
2022-11-20T20:11:44.596Z,4.19
2022-11-20T20:14:08.848Z,4.05
2022-11-20T20:16:30.388Z,4.12
2022-11-20T20:18:59.341Z,4.20
2022-11-20T20:21:20.846Z,4.15
2022-11-20T20:23:43.193Z,4.23
2022-11-20T20:26:07.031Z,4.04
2022-11-20T20:28:28.931Z,4.07
2022-11-20T20:30:50.564Z,3.97
2022-11-20T20:33:12.045Z,3.90
2022-11-20T20:35:33.507Z,3.96
2022-11-20T20:37:54.967Z,3.80
2022-11-20T20:40:16.504Z,3.79
2022-11-20T20:42:37.895Z,3.75
2022-11-20T20:45:10.931Z,3.57
2022-11-20T20:47:34.118Z,3.49
2022-11-20T20:49:55.569Z,3.65
2022-11-20T20:52:17.016Z,3.49
2022-11-20T20:54:38.514Z,3.48
2022-11-20T20:56:59.921Z,3.72
2022-11-20T20:59:21.793Z,3.77
2022-11-20T21:01:43.415Z,3.76
2022-11-20T21:04:04.993Z,3.72
2022-11-20T21:06:26.779Z,3.70
2022-11-20T21:08:48.307Z,3.75
2022-11-20T21:11:13.046Z,3.75
2022-11-20T21:13:35.557Z,3.82
2022-11-20T21:15:57.278Z,3.84
2022-11-20T21:18:22.507Z,3.87
2022-11-20T21:21:04.262Z,3.89
2022-11-20T21:23:25.719Z,4.00
2022-11-20T21:25:47.167Z,4.00
2022-11-20T21:28:12.031Z,4.11
2022-11-20T21:30:35.968Z,4.08
2022-11-20T21:32:57.406Z,4.14
2022-11-20T21:35:18.853Z,4.10
2022-11-20T21:37:41.084Z,4.18
2022-11-20T21:40:02.616Z,4.24
2022-11-20T21:42:24.066Z,4.14
2022-11-20T21:44:46.610Z,4.22
2022-11-20T21:47:08.607Z,4.29
2022-11-20T21:49:30.043Z,4.26
2022-11-20T21:51:51.493Z,4.27
2022-11-20T21:54:13.039Z,4.20
2022-11-20T21:56:34.555Z,4.38
2022-11-20T21:58:56.050Z,4.29
2022-11-20T22:01:21.463Z,4.31
2022-11-20T22:03:47.003Z,4.39
2022-11-20T22:06:09.728Z,4.32
2022-11-20T22:08:31.172Z,4.17
2022-11-20T22:10:55.921Z,4.02
2022-11-20T22:16:07.391Z,4.01
2022-11-20T22:18:28.831Z,4.06
2022-11-20T22:20:50.285Z,4.22
2022-11-20T22:23:11.759Z,4.10
2022-11-20T22:25:33.502Z,4.15
2022-11-20T22:27:54.924Z,4.09
2022-11-20T22:30:16.448Z,4.03
2022-11-20T22:32:37.875Z,3.99
2022-11-20T22:34:59.334Z,3.95
2022-11-20T22:37:20.756Z,3.94
2022-11-20T22:39:42.169Z,3.84
2022-11-20T22:42:03.755Z,3.83
2022-11-20T22:44:25.440Z,3.55
2022-11-20T22:46:47.163Z,3.79
2022-11-20T22:49:08.921Z,3.77
2022-11-20T22:51:33.023Z,3.69
2022-11-20T22:53:54.612Z,3.56
2022-11-20T22:56:17.574Z,3.59
2022-11-20T22:58:41.260Z,3.56
2022-11-20T23:01:13.964Z,3.61
2022-11-20T23:03:36.030Z,3.73
2022-11-20T23:06:01.248Z,3.74
2022-11-20T23:08:22.696Z,3.76
2022-11-20T23:10:44.151Z,3.89
2022-11-20T23:13:05.613Z,3.85
2022-11-20T23:15:27.079Z,3.99
2022-11-20T23:17:48.513Z,3.96
2022-11-20T23:20:10.513Z,3.97
2022-11-20T23:22:32.316Z,4.01
2022-11-20T23:24:53.735Z,4.16
2022-11-20T23:27:17.892Z,4.17
2022-11-20T23:29:41.017Z,4.15
2022-11-20T23:32:02.470Z,4.13
2022-11-20T23:34:24.007Z,4.14
2022-11-20T23:36:45.519Z,4.25
2022-11-20T23:39:08.594Z,4.25
2022-11-20T23:41:30.217Z,4.24
2022-11-20T23:43:53.293Z,4.29
2022-11-20T23:46:16.662Z,4.28
2022-11-20T23:48:38.867Z,4.36
2022-11-20T23:51:00.633Z,4.40
2022-11-20T23:53:23.087Z,4.35
2022-11-20T23:55:46.482Z,4.33
2022-11-20T23:58:07.877Z,4.46
